Time;durP1;ratioP1;P1;durP2;ratioP2;P2;SDS_P1;SDS_P2;PMS_P1;PMS_P2;Temp;Humidity;BMP_temperature;BMP_pressure;BME280_temperature;BME280_humidity;BME280_pressure;Samples;Min_cycle;Max_cycle;Signal;HPM_P1;HPM_P2
2021/06/22 00:02:13;;;;;;;10.90;4.82;;;;;;;12.63;80.90;101549.84;5133019;28;20403;-54
2021/06/22 00:04:40;;;;;;;13.20;4.68;;;;;;;12.59;81.08;101547.50;5130824;28;20047;-52
2021/06/22 00:07:07;;;;;;;11.32;4.50;;;;;;;12.61;80.84;101551.75;5111674;28;20052;-55
2021/06/22 00:09:34;;;;;;;12.10;4.68;;;;;;;12.58;80.94;101554.56;5130499;28;20047;-58
2021/06/22 00:12:00;;;;;;;13.43;4.55;;;;;;;12.48;81.55;101561.38;5129420;28;20047;-54
2021/06/22 00:14:27;;;;;;;11.18;4.28;;;;;;;12.50;81.36;101554.19;5113390;28;20056;-58
2021/06/22 00:16:54;;;;;;;11.80;4.72;;;;;;;12.43;81.96;101548.44;5129351;28;20047;-52
2021/06/22 00:19:21;;;;;;;10.38;4.47;;;;;;;12.41;81.90;101545.06;5110865;28;20047;-53
2021/06/22 00:21:48;;;;;;;12.57;5.78;;;;;;;12.36;82.15;101535.75;5130521;27;20092;-58
2021/06/22 00:24:14;;;;;;;10.93;4.88;;;;;;;12.32;82.36;101535.09;5134220;27;20498;-58
2021/06/22 00:26:41;;;;;;;10.70;5.15;;;;;;;12.21;82.73;101533.09;5115381;27;20100;-58
2021/06/22 00:29:08;;;;;;;12.65;5.57;;;;;;;12.29;82.57;101535.28;5134091;27;20111;-58
2021/06/22 00:31:35;;;;;;;14.20;4.95;;;;;;;12.29;83.19;101540.56;5132688;27;20047;-58
2021/06/22 00:34:01;;;;;;;10.85;4.68;;;;;;;12.37;82.96;101540.09;5132767;27;20043;-58
2021/06/22 00:36:28;;;;;;;10.95;4.82;;;;;;;12.45;82.45;101537.81;5133903;27;20096;-58
2021/06/22 00:38:55;;;;;;;11.88;5.15;;;;;;;12.40;82.69;101535.44;5133812;27;20043;-59
2021/06/22 00:41:22;;;;;;;8.85;4.95;;;;;;;12.43;82.51;101535.25;5132800;27;20379;-59
2021/06/22 00:43:49;;;;;;;13.20;5.43;;;;;;;12.41;82.58;101534.53;5134294;27;20445;-54
2021/06/22 00:46:16;;;;;;;11.75;4.78;;;;;;;12.39;82.89;101533.75;5116728;27;20494;-59
2021/06/22 00:48:42;;;;;;;14.07;4.85;;;;;;;12.29;83.72;101535.28;5133247;27;20383;-58
2021/06/22 00:51:09;;;;;;;12.48;5.68;;;;;;;12.36;82.92;101530.47;5135205;27;20506;-56
2021/06/22 00:53:36;;;;;;;12.52;4.88;;;;;;;12.37;83.43;101521.63;5135835;27;20051;-55
2021/06/22 00:56:03;;;;;;;12.05;4.75;;;;;;;12.40;83.47;101531.97;5115117;27;20051;-55
2021/06/22 00:58:30;;;;;;;11.52;4.78;;;;;;;12.41;83.57;101538.97;5133463;27;20051;-53
2021/06/22 01:00:59;;;;;;;9.40;4.70;;;;;;;12.39;83.27;101540.81;5134006;27;20039;-59
2021/06/22 01:03:26;;;;;;;11.30;4.97;;;;;;;12.49;82.80;101545.44;5133911;27;20070;-59
2021/06/22 01:05:53;;;;;;;10.80;4.28;;;;;;;12.50;82.48;101549.78;5132371;27;20058;-57
2021/06/22 01:08:19;;;;;;;12.02;4.85;;;;;;;12.42;82.14;101546.78;5133174;27;20057;-59
2021/06/22 01:10:46;;;;;;;11.18;4.75;;;;;;;12.31;83.31;101544.78;5097326;27;20167;-59
2021/06/22 01:13:13;;;;;;;8.82;4.60;;;;;;;12.25;83.37;101546.97;5133528;27;20055;-59
2021/06/22 01:15:40;;;;;;;12.68;4.70;;;;;;;12.26;82.97;101554.78;5116083;27;20047;-56
2021/06/22 01:18:07;;;;;;;14.07;5.55;;;;;;;12.15;83.52;101546.69;5132299;27;20074;-55
2021/06/22 01:20:36;;;;;;;9.15;5.20;;;;;;;12.19;83.28;101542.91;5132415;27;20051;-53
2021/06/22 01:23:05;;;;;;;10.43;5.15;;;;;;;12.08;84.20;101547.97;5132895;27;20047;-54
2021/06/22 01:25:33;;;;;;;14.23;5.38;;;;;;;12.13;83.41;101562.59;5132971;27;20134;-58
2021/06/22 01:28:00;;;;;;;9.50;4.85;;;;;;;12.22;83.75;101566.44;5114885;27;20087;-57
2021/06/22 01:30:29;;;;;;;11.07;5.50;;;;;;;12.12;83.48;101560.03;5135123;27;20049;-58
2021/06/22 01:32:57;;;;;;;10.85;5.55;;;;;;;12.09;83.78;101550.53;5116958;27;20047;-59
2021/06/22 01:35:25;;;;;;;10.65;5.00;;;;;;;12.13;83.46;101552.03;5134913;27;20051;-59
2021/06/22 01:37:54;;;;;;;10.18;4.63;;;;;;;12.19;83.62;101556.09;5135373;27;20077;-59
2021/06/22 01:40:22;;;;;;;13.77;5.20;;;;;;;12.27;83.89;101553.84;5135719;27;20043;-59
2021/06/22 01:42:49;;;;;;;13.35;4.60;;;;;;;12.31;83.65;101547.44;5117221;27;20444;-60
2021/06/22 01:45:16;;;;;;;12.75;5.53;;;;;;;12.33;83.73;101548.16;5132589;27;20047;-58
2021/06/22 01:47:44;;;;;;;13.68;5.20;;;;;;;12.25;83.96;101550.44;5132222;27;20047;-58
2021/06/22 01:50:12;;;;;;;9.80;4.75;;;;;;;12.15;83.76;101539.59;5113407;28;20060;-59
2021/06/22 01:52:38;;;;;;;12.77;6.15;;;;;;;12.13;83.66;101535.34;5114741;28;20508;-58
2021/06/22 01:57:52;;;;;;;13.50;5.25;;;;;;;12.08;84.10;101534.78;5113340;28;20051;-57
2021/06/22 02:00:19;;;;;;;10.35;5.63;;;;;;;12.11;84.34;101532.81;5114272;28;20105;-54
2021/06/22 02:02:46;;;;;;;12.32;5.15;;;;;;;12.21;83.79;101522.56;5114406;28;20097;-54
2021/06/22 02:05:14;;;;;;;12.13;5.55;;;;;;;12.25;83.75;101520.59;5113402;28;20040;-57
2021/06/22 02:07:42;;;;;;;11.93;5.22;;;;;;;12.22;83.66;101518.97;5110598;28;20595;-59
2021/06/22 02:10:10;;;;;;;11.02;5.40;;;;;;;12.17;83.31;101547.41;5111477;28;20416;-55
2021/06/22 02:12:37;;;;;;;12.68;4.93;;;;;;;12.35;82.87;101555.97;5109291;28;20058;-54
2021/06/22 02:15:06;;;;;;;10.77;4.40;;;;;;;12.24;83.19;101561.91;5110418;28;20055;-53
2021/06/22 02:17:33;;;;;;;12.48;5.20;;;;;;;12.28;83.34;101555.50;5111236;28;20386;-59
2021/06/22 02:20:00;;;;;;;13.30;5.68;;;;;;;12.28;82.33;101563.41;5109078;28;20040;-54
2021/06/22 02:22:27;;;;;;;8.95;5.28;;;;;;;12.24;82.63;101556.63;5111592;28;20047;-59
2021/06/22 02:24:54;;;;;;;12.90;4.80;;;;;;;12.11;83.58;101558.34;5112749;28;20058;-58
2021/06/22 02:27:29;;;;;;;12.80;5.45;;;;;;;12.10;83.05;101557.47;5113865;28;20125;-58
2021/06/22 02:29:56;;;;;;;10.93;5.63;;;;;;;12.09;83.26;101555.81;5112556;28;20376;-58
2021/06/22 02:32:24;;;;;;;8.82;4.50;;;;;;;12.05;83.04;101564.81;5110905;28;20052;-59
2021/06/22 02:34:51;;;;;;;9.02;4.93;;;;;;;12.00;83.73;101562.47;5108041;28;20052;-53
2021/06/22 02:37:18;;;;;;;9.93;5.55;;;;;;;12.02;83.72;101564.16;5110564;28;20051;-55
2021/06/22 02:39:46;;;;;;;13.30;6.40;;;;;;;11.89;84.41;101559.59;5110964;28;20453;-55
2021/06/22 02:42:12;;;;;;;14.70;5.50;;;;;;;11.81;84.19;101562.66;5110264;28;20044;-55
2021/06/22 02:44:39;;;;;;;12.23;5.18;;;;;;;11.87;84.17;101573.81;5110199;28;20109;-50
2021/06/22 02:47:06;;;;;;;11.77;5.07;;;;;;;11.99;83.52;101565.19;5108399;28;20054;-53
2021/06/22 02:49:33;;;;;;;8.77;4.75;;;;;;;11.97;83.59;101562.66;5093783;28;20059;-53
2021/06/22 02:52:01;;;;;;;10.55;4.97;;;;;;;11.99;83.27;101552.84;5111398;28;20043;-54
2021/06/22 02:54:28;;;;;;;15.82;5.78;;;;;;;11.95;84.09;101561.03;5110621;28;20438;-57
2021/06/22 02:56:54;;;;;;;11.25;4.85;;;;;;;11.99;83.68;101565.19;5110045;28;20125;-52
2021/06/22 02:59:21;;;;;;;10.75;4.60;;;;;;;11.93;84.09;101565.50;5110196;28;20056;-52
2021/06/22 03:01:48;;;;;;;11.15;4.78;;;;;;;12.06;83.33;101565.69;5113409;28;20487;-58
2021/06/22 03:04:15;;;;;;;12.93;5.13;;;;;;;12.00;83.60;101562.47;5112196;28;20063;-57
2021/06/22 03:06:42;;;;;;;11.93;4.65;;;;;;;12.07;83.53;101559.47;5113269;28;20035;-56
2021/06/22 03:09:08;;;;;;;10.05;4.70;;;;;;;11.96;83.18;101560.94;5113046;28;20043;-54
2021/06/22 03:11:35;;;;;;;10.40;5.03;;;;;;;11.83;83.82;101559.94;5113329;28;20491;-53
2021/06/22 03:14:02;;;;;;;10.93;4.72;;;;;;;11.80;84.36;101560.97;5113056;28;20048;-53
2021/06/22 03:16:29;;;;;;;11.10;4.90;;;;;;;11.81;84.27;101562.66;5113212;28;20051;-52
2021/06/22 03:18:56;;;;;;;9.95;4.63;;;;;;;11.69;84.79;101560.75;5113333;28;20054;-57
2021/06/22 03:21:22;;;;;;;12.05;5.18;;;;;;;11.72;84.02;101570.28;5110604;28;20059;-58
2021/06/22 03:23:49;;;;;;;10.45;4.68;;;;;;;11.76;84.24;101563.88;5110928;28;20126;-58
2021/06/22 03:26:16;;;;;;;9.07;4.63;;;;;;;11.55;85.20;101564.19;5109663;28;20377;-57
2021/06/22 03:28:43;;;;;;;12.38;5.57;;;;;;;11.55;85.15;101565.97;5110388;28;20055;-58
2021/06/22 03:31:10;;;;;;;11.75;5.10;;;;;;;11.62;85.05;101562.06;5109672;28;20079;-57
2021/06/22 03:33:37;;;;;;;13.48;5.38;;;;;;;11.63;85.25;101569.88;5109123;28;20039;-58
2021/06/22 03:36:04;;;;;;;11.23;4.95;;;;;;;11.63;84.94;101571.63;5109443;28;20035;-58
2021/06/22 03:38:31;;;;;;;14.32;4.82;;;;;;;11.70;84.89;101575.63;5110367;28;20422;-58
2021/06/22 03:40:59;;;;;;;15.65;5.22;;;;;;;11.67;85.51;101571.38;5109532;28;20047;-58
2021/06/22 03:43:25;;;;;;;11.38;5.00;;;;;;;11.56;85.13;101573.81;5111132;28;20067;-58
2021/06/22 03:45:52;;;;;;;10.10;5.68;;;;;;;11.58;85.65;101571.91;5091596;28;20039;-53
2021/06/22 03:48:20;;;;;;;10.82;5.65;;;;;;;11.47;86.33;101569.91;5109188;28;20084;-55
2021/06/22 03:50:47;;;;;;;13.60;5.85;;;;;;;11.50;85.44;101582.88;5111456;28;20479;-55
2021/06/22 03:53:14;;;;;;;13.93;5.25;;;;;;;11.55;85.18;101579.13;5112672;28;20039;-58
2021/06/22 03:55:40;;;;;;;10.63;5.05;;;;;;;11.45;85.71;101586.72;5130803;28;20031;-55
2021/06/22 03:58:08;;;;;;;9.35;4.95;;;;;;;11.53;85.88;101594.19;5133148;27;20114;-53
2021/06/22 04:00:34;;;;;;;10.10;4.63;;;;;;;11.43;86.19;101602.63;5118149;27;20050;-54
2021/06/22 04:03:02;;;;;;;11.65;4.75;;;;;;;11.46;85.70;101601.59;5134244;27;20039;-55
2021/06/22 04:05:30;;;;;;;9.38;4.47;;;;;;;11.51;85.02;101599.56;5115407;27;20096;-54
2021/06/22 04:07:58;;;;;;;9.65;4.30;;;;;;;11.45;85.24;101602.53;5134370;27;20537;-53
2021/06/22 04:10:25;;;;;;;10.98;4.53;;;;;;;11.43;84.97;101604.41;5117610;27;20043;-56
2021/06/22 04:12:52;;;;;;;12.68;4.63;;;;;;;11.46;84.17;101599.81;5137392;27;20047;-51
2021/06/22 04:15:19;;;;;;;10.77;5.05;;;;;;;11.41;84.74;101599.25;5115857;27;20069;-56
2021/06/22 04:17:47;;;;;;;9.95;4.57;;;;;;;11.41;84.31;101601.88;5133771;27;20047;-53
2021/06/22 04:20:14;;;;;;;10.40;5.07;;;;;;;11.40;84.62;101594.91;5133154;27;20059;-53
2021/06/22 04:22:41;;;;;;;11.20;6.38;;;;;;;11.42;84.24;101603.56;5116347;27;20391;-53
2021/06/22 04:25:09;;;;;;;12.30;5.03;;;;;;;11.41;84.65;101601.00;5134045;27;20132;-55
2021/06/22 04:27:36;;;;;;;13.15;5.10;;;;;;;11.42;84.91;101605.34;5115401;27;20344;-53
2021/06/22 04:30:04;;;;;;;12.98;5.50;;;;;;;11.42;84.10;101608.81;5133440;27;20055;-53
2021/06/22 04:32:31;;;;;;;12.75;5.75;;;;;;;11.39;84.40;101603.72;5098826;27;20043;-52
2021/06/22 04:34:58;;;;;;;12.95;5.65;;;;;;;11.42;84.17;101610.63;5132754;27;20047;-57
2021/06/22 04:37:25;;;;;;;12.40;6.30;;;;;;;11.49;83.47;101604.91;5115744;27;20479;-58
2021/06/22 04:39:51;;;;;;;13.10;5.88;;;;;;;11.49;83.67;101596.16;5098481;27;20047;-58
2021/06/22 04:42:18;;;;;;;14.52;6.28;;;;;;;11.40;84.36;101601.94;5115341;27;20472;-58
2021/06/22 04:44:46;;;;;;;17.02;6.38;;;;;;;11.42;83.81;101600.09;5133401;27;20047;-58
2021/06/22 04:47:13;;;;;;;11.00;5.53;;;;;;;11.47;83.73;101600.66;5115571;27;20487;-58
2021/06/22 04:49:40;;;;;;;15.70;6.70;;;;;;;11.49;84.10;101599.66;5132536;27;20051;-58
2021/06/22 04:52:09;;;;;;;15.20;6.38;;;;;;;11.48;84.24;101591.84;5133603;27;20058;-58
2021/06/22 04:54:37;;;;;;;16.02;6.60;;;;;;;11.53;83.41;101595.03;5115706;27;20043;-55
2021/06/22 04:57:04;;;;;;;13.90;6.70;;;;;;;11.53;84.40;101596.84;5135669;27;20046;-53
2021/06/22 04:59:33;;;;;;;13.57;7.50;;;;;;;11.58;83.93;101590.34;5133217;27;20096;-54
2021/06/22 05:02:18;;;;;;;15.00;6.63;;;;;;;11.82;84.02;101600.41;5133323;27;20035;-54
2021/06/22 05:04:45;;;;;;;12.38;7.65;;;;;;;11.88;83.33;101599.22;5114373;27;20130;-53
2021/06/22 05:07:12;;;;;;;13.43;7.65;;;;;;;11.94;82.63;101599.75;5133721;27;20453;-55
2021/06/22 05:09:39;;;;;;;13.63;7.22;;;;;;;11.95;82.71;101596.16;5132102;27;20043;-53
2021/06/22 05:12:06;;;;;;;16.35;7.53;;;;;;;11.96;82.14;101597.00;5132288;27;20511;-54
2021/06/22 05:14:33;;;;;;;14.20;7.00;;;;;;;12.07;81.31;101604.28;5133352;27;20510;-56
2021/06/22 05:16:59;;;;;;;14.18;6.82;;;;;;;12.02;81.14;101615.09;5132565;27;20032;-54
2021/06/22 05:19:26;;;;;;;15.45;7.55;;;;;;;12.09;80.96;101603.25;5116068;27;20046;-53
2021/06/22 05:21:53;;;;;;;17.02;8.20;;;;;;;12.20;80.98;101599.13;5115307;27;20070;-54
2021/06/22 05:24:20;;;;;;;14.32;7.53;;;;;;;12.27;80.29;101609.22;5133048;27;20051;-52
2021/06/22 05:26:47;;;;;;;13.63;7.80;;;;;;;12.33;80.37;101610.63;5131752;27;20545;-58
2021/06/22 05:29:14;;;;;;;14.13;7.97;;;;;;;12.39;79.38;101612.88;5133139;27;20039;-58
2021/06/22 05:31:41;;;;;;;17.45;8.10;;;;;;;12.45;78.96;101619.59;5132218;27;20043;-58
2021/06/22 05:34:08;;;;;;;14.43;8.02;;;;;;;12.61;78.65;101617.72;5132170;27;20043;-58
2021/06/22 05:36:35;;;;;;;14.07;7.63;;;;;;;12.76;78.83;101622.97;5132440;27;20088;-54
2021/06/22 05:39:02;;;;;;;13.77;7.72;;;;;;;12.91;78.48;101616.75;5132758;27;20411;-51
2021/06/22 05:41:29;;;;;;;14.48;7.80;;;;;;;13.07;77.92;101615.78;5113251;27;20078;-53
2021/06/22 05:43:55;;;;;;;13.73;7.55;;;;;;;13.16;76.65;101616.03;5132704;27;20111;-51
2021/06/22 05:46:22;;;;;;;17.00;7.50;;;;;;;13.30;76.33;101633.63;5131833;27;20130;-60
2021/06/22 05:48:49;;;;;;;13.55;7.43;;;;;;;13.44;75.76;101631.94;5131497;27;20521;-57
2021/06/22 05:51:16;;;;;;;17.13;7.70;;;;;;;13.56;75.16;101631.13;5096751;27;20046;-58
2021/06/22 05:53:43;;;;;;;15.45;7.97;;;;;;;13.67;73.41;101631.31;5132298;27;20415;-57
2021/06/22 05:56:10;;;;;;;16.30;7.68;;;;;;;13.84;74.35;101637.28;5131625;27;20096;-57
2021/06/22 05:58:37;;;;;;;12.35;7.30;;;;;;;13.92;73.59;101634.97;5131864;27;20046;-59
2021/06/22 06:01:03;;;;;;;13.38;8.00;;;;;;;13.98;72.46;101639.00;5131566;27;20058;-59
2021/06/22 06:03:30;;;;;;;13.25;7.28;;;;;;;14.08;72.92;101641.84;5131559;27;20495;-57
2021/06/22 06:05:57;;;;;;;14.82;7.22;;;;;;;14.20;71.55;101638.38;5131202;27;20043;-57
2021/06/22 06:08:24;;;;;;;14.82;8.30;;;;;;;14.37;71.69;101632.78;5113496;27;20541;-57
2021/06/22 06:10:51;;;;;;;13.80;7.55;;;;;;;14.54;70.48;101633.41;5113753;27;20447;-57
2021/06/22 06:13:18;;;;;;;12.05;6.93;;;;;;;14.60;69.68;101633.00;5113482;27;20469;-58
2021/06/22 06:15:44;;;;;;;13.15;6.55;;;;;;;14.65;69.82;101636.19;5131601;27;20043;-57
2021/06/22 06:18:12;;;;;;;14.27;6.93;;;;;;;14.72;68.81;101631.31;5131356;27;20066;-58
2021/06/22 06:20:38;;;;;;;14.15;6.93;;;;;;;14.82;68.90;101632.38;5112526;27;20051;-56
2021/06/22 06:23:05;;;;;;;14.30;7.60;;;;;;;14.86;67.79;101628.53;5113749;27;21146;-56
2021/06/22 06:25:32;;;;;;;14.45;7.72;;;;;;;14.90;67.94;101637.09;5131505;27;20055;-56
2021/06/22 06:28:05;;;;;;;12.80;7.53;;;;;;;14.84;68.02;101635.75;5112803;27;20051;-58
2021/06/22 06:30:34;;;;;;;22.30;8.15;;;;;;;14.96;67.41;101631.38;5114003;27;20055;-55
2021/06/22 06:33:01;;;;;;;17.15;7.35;;;;;;;15.11;67.63;101634.72;5130942;27;20090;-55
2021/06/22 06:35:27;;;;;;;12.88;7.80;;;;;;;15.22;66.03;101628.66;5112381;27;20577;-55
2021/06/22 06:37:55;;;;;;;14.43;7.35;;;;;;;15.41;67.19;101637.94;5112984;27;20055;-54
2021/06/22 06:40:22;;;;;;;14.00;7.05;;;;;;;15.54;65.25;101634.28;5131503;27;20053;-55
2021/06/22 06:42:49;;;;;;;16.63;7.88;;;;;;;15.73;64.96;101646.13;5131087;27;20051;-52
2021/06/22 06:45:17;;;;;;;15.32;7.95;;;;;;;15.95;64.65;101642.78;5112701;27;20061;-58
2021/06/22 06:47:46;;;;;;;14.05;7.28;;;;;;;16.04;64.38;101654.50;5130965;27;20035;-59
2021/06/22 06:50:13;;;;;;;12.70;7.68;;;;;;;16.24;63.92;101655.63;5130769;27;20051;-59
2021/06/22 06:52:40;;;;;;;14.32;7.35;;;;;;;16.25;60.63;101662.63;5131662;27;20055;-59
2021/06/22 06:55:25;;;;;;;14.63;8.02;;;;;;;16.31;61.27;101651.53;5131354;27;20047;-57
2021/06/22 06:57:58;;;;;;;14.10;7.57;;;;;;;16.43;58.55;101652.41;5130354;27;20077;-58
2021/06/22 07:00:28;;;;;;;11.70;7.30;;;;;;;16.53;57.70;101644.59;5130813;27;20438;-58
2021/06/22 07:02:55;;;;;;;14.57;7.80;;;;;;;16.64;56.71;101647.22;5112832;27;20283;-59
2021/06/22 07:05:22;;;;;;;14.32;8.00;;;;;;;16.92;57.33;101655.72;5130041;27;20407;-59
2021/06/22 07:07:50;;;;;;;16.55;7.50;;;;;;;16.94;56.95;101653.78;5112468;27;20114;-57
2021/06/22 07:10:17;;;;;;;11.73;8.00;;;;;;;16.79;56.70;101650.50;5112601;27;20130;-58
2021/06/22 07:12:45;;;;;;;16.88;8.07;;;;;;;16.73;56.16;101648.34;5130004;27;20053;-57
2021/06/22 07:15:13;;;;;;;13.32;7.75;;;;;;;16.90;57.17;101649.69;5112205;27;20054;-58
2021/06/22 07:17:40;;;;;;;12.93;7.55;;;;;;;17.01;57.29;101654.97;5130628;27;20050;-57
2021/06/22 07:20:08;;;;;;;15.48;7.88;;;;;;;16.84;56.46;101663.44;5130019;27;20047;-57
2021/06/22 07:22:35;;;;;;;14.93;8.15;;;;;;;16.83;55.54;101669.69;5130573;27;20445;-58
2021/06/22 07:25:03;;;;;;;14.35;8.18;;;;;;;16.85;57.08;101667.75;5112516;27;20042;-58
2021/06/22 07:27:30;;;;;;;13.50;7.55;;;;;;;16.90;55.89;101669.09;5130195;27;20058;-58
2021/06/22 07:29:57;;;;;;;13.15;7.85;;;;;;;16.87;55.93;101663.19;5111581;28;20058;-57
2021/06/22 07:32:23;;;;;;;14.15;7.70;;;;;;;16.90;56.75;101663.78;5129896;27;20047;-58
2021/06/22 07:34:50;;;;;;;16.48;7.80;;;;;;;16.86;56.12;101662.31;5129647;27;20051;-58
2021/06/22 07:37:17;;;;;;;11.70;7.70;;;;;;;16.79;56.12;101665.59;5112564;27;20047;-56
2021/06/22 07:39:44;;;;;;;16.00;8.05;;;;;;;16.94;56.19;101669.72;5130574;27;20055;-57
2021/06/22 07:42:11;;;;;;;12.13;7.93;;;;;;;16.96;56.07;101665.16;5130253;28;20383;-58
2021/06/22 07:44:37;;;;;;;16.63;7.97;;;;;;;16.92;54.94;101661.03;5129837;28;20096;-57
2021/06/22 07:47:04;;;;;;;14.70;7.70;;;;;;;16.88;55.20;101670.19;5130160;28;20043;-58
2021/06/22 07:49:31;;;;;;;11.93;8.18;;;;;;;16.90;55.42;101674.41;5129827;28;20465;-59
2021/06/22 07:51:58;;;;;;;14.63;8.68;;;;;;;16.72;56.11;101670.53;5112195;28;20486;-58
2021/06/22 07:54:25;;;;;;;13.18;7.78;;;;;;;16.75;56.30;101672.13;5130955;28;20043;-58
2021/06/22 07:56:52;;;;;;;15.18;8.80;;;;;;;16.94;55.53;101674.19;5111349;28;20096;-59
2021/06/22 07:59:18;;;;;;;16.40;8.15;;;;;;;16.98;56.66;101676.47;5130600;28;20471;-58
2021/06/22 08:01:47;;;;;;;15.30;8.13;;;;;;;16.98;56.12;101671.16;5129236;28;20043;-58
2021/06/22 08:04:14;;;;;;;12.60;8.27;;;;;;;17.06;55.90;101678.53;5130034;28;20466;-58
2021/06/22 08:06:41;;;;;;;13.90;7.68;;;;;;;17.03;54.75;101671.66;5129753;28;20070;-58
2021/06/22 08:09:07;;;;;;;16.80;9.82;;;;;;;17.04;56.10;101676.00;5129815;28;20123;-58
2021/06/22 08:11:35;;;;;;;13.60;9.05;;;;;;;16.92;55.47;101670.81;5129424;28;20104;-58
2021/06/22 08:14:02;;;;;;;12.95;9.00;;;;;;;17.15;55.62;101672.50;5111856;28;20729;-58
2021/06/22 08:16:29;;;;;;;15.77;9.05;;;;;;;17.29;54.65;101667.84;5129438;28;20044;-58
2021/06/22 08:19:00;;;;;;;13.95;8.88;;;;;;;17.36;54.90;101675.22;5128872;28;20043;-58
2021/06/22 08:21:27;;;;;;;16.30;8.65;;;;;;;17.30;53.63;101673.06;5130248;28;20057;-58
2021/06/22 08:23:54;;;;;;;12.60;8.35;;;;;;;17.23;53.94;101663.88;5130061;28;20062;-58
2021/06/22 08:26:21;;;;;;;16.80;9.10;;;;;;;17.33;54.76;101674.63;5129673;28;20100;-58
2021/06/22 08:28:48;;;;;;;13.95;9.10;;;;;;;17.46;53.35;101679.81;5129354;28;20051;-59
2021/06/22 08:31:18;;;;;;;13.27;8.40;;;;;;;17.39;53.86;101674.13;5127980;28;20042;-58
2021/06/22 08:33:46;;;;;;;14.23;8.90;;;;;;;17.52;53.35;101682.81;5127868;28;20101;-58
2021/06/22 08:36:14;;;;;;;15.23;8.40;;;;;;;17.36;52.84;101680.53;5110762;28;20047;-58
2021/06/22 08:38:41;;;;;;;15.10;9.35;;;;;;;17.58;53.00;101686.78;5129553;28;20092;-57
2021/06/22 08:41:09;;;;;;;15.07;8.63;;;;;;;17.59;51.85;101685.81;5082305;28;20039;-58
2021/06/22 08:43:36;;;;;;;15.57;9.43;;;;;;;17.69;52.00;101686.72;5109573;27;20131;-58
2021/06/22 08:46:04;;;;;;;14.70;8.13;;;;;;;17.77;51.24;101693.25;5088194;27;20043;-59
2021/06/22 08:48:32;;;;;;;15.52;8.50;;;;;;;17.92;50.49;101696.50;5132575;27;20043;-58
2021/06/22 08:50:59;;;;;;;12.95;8.45;;;;;;;17.88;52.13;101702.03;5131809;27;20514;-58
2021/06/22 08:53:27;;;;;;;14.70;8.65;;;;;;;18.04;49.80;101701.63;5133090;27;20031;-58
2021/06/22 08:55:54;;;;;;;12.07;8.05;;;;;;;18.26;50.82;101697.16;5114187;27;20517;-58
2021/06/22 08:58:20;;;;;;;16.92;8.07;;;;;;;18.27;51.67;101700.66;5114183;27;20038;-58
2021/06/22 09:00:49;;;;;;;12.80;7.75;;;;;;;18.48;49.85;101706.84;5132238;27;20063;-57
2021/06/22 09:03:22;;;;;;;12.82;8.35;;;;;;;18.83;49.33;101705.63;5132149;27;20054;-58
2021/06/22 09:05:53;;;;;;;12.40;7.40;;;;;;;18.89;47.72;101701.59;5132075;27;20057;-58
2021/06/22 09:08:23;;;;;;;12.15;7.47;;;;;;;19.00;47.45;101704.16;5114587;27;20039;-57
2021/06/22 09:10:53;;;;;;;12.75;8.45;;;;;;;19.19;47.36;101697.22;5114160;27;20467;-58
2021/06/22 09:13:23;;;;;;;11.20;7.30;;;;;;;19.45;48.21;101694.06;5097273;27;20047;-58
2021/06/22 09:15:52;;;;;;;13.63;7.95;;;;;;;19.66;46.65;101684.13;5132494;27;20047;-58
2021/06/22 09:18:28;;;;;;;11.88;7.32;;;;;;;19.23;46.18;101694.16;5131799;27;20043;-58
2021/06/22 09:21:21;;;;;;;11.88;7.57;;;;;;;19.66;46.80;101684.13;5131760;27;20112;-58
2021/06/22 09:23:53;;;;;;;12.40;8.25;;;;;;;19.70;46.76;101680.19;5132521;27;20057;-58
2021/06/22 09:26:24;;;;;;;12.13;8.05;;;;;;;20.04;46.70;101679.81;5132124;27;20521;-57
2021/06/22 09:28:53;;;;;;;11.63;7.53;;;;;;;20.39;46.05;101672.16;5132081;27;20047;-58
2021/06/22 09:31:22;;;;;;;15.80;7.63;;;;;;;20.60;44.29;101682.63;5113122;27;20043;-57
2021/06/22 09:33:53;;;;;;;10.70;7.35;;;;;;;20.63;44.24;101677.00;5132098;27;20067;-57
2021/06/22 09:36:24;;;;;;;11.65;7.68;;;;;;;20.81;43.50;101677.09;5131854;27;20039;-57
2021/06/22 09:38:53;;;;;;;9.10;6.50;;;;;;;20.85;43.56;101675.81;5105814;27;20487;-58
2021/06/22 09:41:26;;;;;;;10.57;6.93;;;;;;;21.10;40.67;101671.63;5131732;27;20058;-56
2021/06/22 09:44:06;;;;;;;11.77;6.45;;;;;;;21.29;41.78;101667.13;5113810;27;20054;-58
2021/06/22 09:46:44;;;;;;;9.90;7.03;;;;;;;21.30;41.73;101674.19;5113183;27;20107;-57
2021/06/22 09:49:13;;;;;;;12.05;7.00;;;;;;;21.64;42.07;101673.56;5106430;27;20838;-58
2021/06/22 09:51:51;;;;;;;12.38;7.35;;;;;;;21.19;40.96;101687.78;5131869;27;20035;-57
2021/06/22 09:54:26;;;;;;;10.88;6.70;;;;;;;21.41;41.35;101676.63;5106790;28;20054;-57
2021/06/22 09:57:13;;;;;;;10.32;6.70;;;;;;;21.62;41.38;101683.56;5130789;27;20059;-57
2021/06/22 09:59:52;;;;;;;11.23;7.10;;;;;;;22.19;41.96;101671.66;5131623;27;20043;-58
2021/06/22 10:02:20;;;;;;;10.25;6.53;;;;;;;22.14;39.57;101672.09;5105962;27;20441;-57
2021/06/22 10:04:49;;;;;;;11.30;6.78;;;;;;;22.28;39.24;101673.41;5129890;27;20047;-58
2021/06/22 10:07:19;;;;;;;8.68;5.95;;;;;;;22.26;37.43;101670.03;5112587;27;20452;-58
2021/06/22 10:09:53;;;;;;;11.20;7.05;;;;;;;22.18;38.52;101668.13;5113114;27;20404;-58
2021/06/22 10:12:21;;;;;;;11.85;7.22;;;;;;;22.04;39.98;101661.50;5112325;27;20164;-58
2021/06/22 10:14:50;;;;;;;9.98;6.03;;;;;;;22.41;39.08;101656.91;5130646;27;20043;-57
2021/06/22 10:17:20;;;;;;;13.55;6.85;;;;;;;22.54;37.92;101662.69;5113073;27;20039;-58
2021/06/22 10:19:49;;;;;;;10.35;6.30;;;;;;;22.53;37.74;101660.19;5112236;27;20122;-56
2021/06/22 10:22:18;;;;;;;12.35;7.25;;;;;;;22.92;37.47;101651.66;5131944;27;20153;-57
2021/06/22 10:24:46;;;;;;;9.88;6.28;;;;;;;22.69;37.66;101660.25;5113607;27;20043;-57
2021/06/22 10:27:16;;;;;;;11.20;7.13;;;;;;;22.47;37.39;101655.44;5131062;27;20466;-58
2021/06/22 10:29:45;;;;;;;12.30;7.00;;;;;;;22.92;38.71;101651.66;5131321;27;20051;-57
2021/06/22 10:32:14;;;;;;;10.32;7.10;;;;;;;22.74;37.73;101644.53;5131101;27;20105;-58
2021/06/22 10:34:45;;;;;;;11.40;7.00;;;;;;;22.76;39.18;101647.88;5112452;27;20514;-57
2021/06/22 10:37:14;;;;;;;9.68;6.32;;;;;;;22.77;37.63;101649.56;5131450;27;20058;-58
2021/06/22 10:39:53;;;;;;;10.98;6.20;;;;;;;23.03;35.80;101648.66;5131770;27;20495;-57
2021/06/22 10:42:20;;;;;;;12.60;6.15;;;;;;;23.02;36.03;101646.16;5131202;27;20502;-58
2021/06/22 10:45:01;;;;;;;11.18;6.18;;;;;;;23.17;36.34;101646.41;5112426;27;20130;-57
2021/06/22 10:47:29;;;;;;;9.95;5.82;;;;;;;23.37;34.30;101645.09;5130598;27;20051;-58
2021/06/22 10:50:04;;;;;;;8.63;5.45;;;;;;;23.27;31.95;101649.75;5129667;27;20054;-57
2021/06/22 10:55:21;;;;;;;10.57;6.00;;;;;;;23.10;34.14;101651.53;5113219;27;20043;-57
2021/06/22 10:58:04;;;;;;;9.25;5.90;;;;;;;23.33;36.34;101643.75;5130429;27;20048;-57
2021/06/22 11:00:51;;;;;;;11.02;6.00;;;;;;;23.53;33.07;101644.28;5130367;27;20042;-55
2021/06/22 11:03:31;;;;;;;9.75;5.32;;;;;;;23.46;31.87;101641.44;5130369;27;20096;-57
2021/06/22 11:06:10;;;;;;;8.77;5.20;;;;;;;23.60;34.53;101639.06;5129525;27;20047;-58
2021/06/22 11:08:38;;;;;;;9.80;5.45;;;;;;;23.55;34.17;101644.94;5130710;27;20039;-57
2021/06/22 11:11:05;;;;;;;8.88;5.72;;;;;;;23.46;35.57;101633.38;5095304;27;20046;-57
2021/06/22 11:13:41;;;;;;;11.40;6.35;;;;;;;23.41;34.83;101642.91;5130830;27;20043;-57
2021/06/22 11:16:14;;;;;;;9.82;5.10;;;;;;;23.95;34.99;101643.28;5112108;27;20430;-58
2021/06/22 11:18:56;;;;;;;8.27;4.50;;;;;;;24.01;32.55;101652.53;5130396;27;20122;-57
2021/06/22 11:21:28;;;;;;;8.15;4.50;;;;;;;24.06;32.37;101650.16;5112656;27;20050;-56
2021/06/22 11:24:03;;;;;;;9.25;4.85;;;;;;;23.71;32.55;101644.13;5112844;27;20047;-57
2021/06/22 11:27:04;;;;;;;10.43;4.75;;;;;;;23.93;33.13;101644.50;5112146;27;20094;-57
2021/06/22 11:29:31;;;;;;;8.85;4.63;;;;;;;24.10;33.08;101637.25;5111843;28;20043;-57
2021/06/22 11:31:59;;;;;;;8.75;4.82;;;;;;;24.32;31.66;101646.44;5110044;27;20499;-57